Impacts METAR Board
IDs:

KCLE - Cleveland/Hopkins In, OH, US

Updated at: 0500 UTC 17 Aug 2018
Potential Impact None Slight Moderate High
Time 16/17Z 16/18Z 16/19Z 16/20Z 16/21Z 16/22Z 16/23Z 17/00Z 17/01Z 17/02Z 17/03Z 17/04Z 17/05Z
Temp80 81 81 76 76 76 77 75 76 76 76 75 75
Dewpt68 68 68 72 69 69 69 69 68 67 68 69 69
Altim30.07 30.06 30.05 30.05 30.03 30.02 30.03 30.03 30.02 30.04 30.04 30.02 30.02
VIS10 10 10 10 10 10 10 10 10 10 10 10 10
CIG90 29 35 48 21 33 26 24 26 35 25 50 50
CoverOVCOVCOVCOVCOVCOVCOVCOVCOVCOVCOVCBKNOVC
FltCatVFRMVFRVFRVFRMVFRVFRMVFRMVFRMVFRVFRMVFRVFRVFR
WX--------------------------
WDir190200180180190200190190190190180180190
WSpd16 15 13 8 9 9 10 9 10 8 8 10 7
WGst23 22 -- -- -- -- -- -- -- -- -- -- --
Raw hourly METARs
KCLE 161651Z 19016G23KT 10SM SCT029 BKN090 OVC120 27/20 A3007 RMK AO2 SLP177 T02670200 $
KCLE 161751Z 20015G22KT 10SM BKN029 BKN120 OVC200 27/20 A3006 RMK AO2 SLP173 T02720200 10272 20228 58005 $
KCLE 161851Z 18013KT 10SM BKN035 OVC050 27/20 A3005 RMK AO2 SLP169 T02720200 $
KCLE 161951Z 18008KT 10SM FEW010 SCT031 OVC048 24/22 A3005 RMK AO2 RAB20E47 SLP168 P0001 T02440222 $
KCLE 162051Z 19009KT 10SM OVC021 24/21 A3003 RMK AO2 SLP163 60001 T02440206 58010 $
KCLE 162151Z 20009KT 10SM SCT027 BKN033 OVC041 24/21 A3002 RMK AO2 SLP161 T02440206 $
KCLE 162259Z 19010KT 10SM BKN026 OVC037 25/21 A3003 RMK AO2 T02500206 $
KCLE 162351Z 19009KT 10SM OVC024 24/21 A3003 RMK AO2 RAB37E48 SLP163 P0000 60001 T02390206 10283 20233 55000 $
KCLE 170051Z 19010KT 10SM BKN026 OVC031 24/20 A3002 RMK AO2 SLP160 T02440200 $
KCLE 170151Z 19008KT 10SM SCT027 OVC035 24/19 A3004 RMK AO2 SLP166 T02440194 $
KCLE 170251Z 18008KT 10SM BKN025 BKN036 OVC046 24/20 A3004 RMK AO2 SLP165 T02440200 51005 $
KCLE 170351Z 18010KT 10SM FEW034 BKN050 24/21 A3002 RMK AO2 SLP159 T02390206 $
KCLE 170451Z 19007KT 10SM FEW036 OVC050 24/21 A3002 RMK AO2 SLP157 T02390206 402830228 $



Page loaded:  05:21 UTC  |   10:21 PM Pacific  |   11:21 PM Mountain  |   12:21 AM Central  |   01:21 AM Eastern

 

ADVISORIES

FORECASTS

FORECASTS

OBSERVATIONS

USER TOOLS

ABOUT US